Time,TemperatureF,DewpointF,PressureIn,WindDirection,WindDirectionDegrees,WindSpeedMPH,WindSpeedGustMPH,Humidity,HourlyPrecipIn,Conditions,Clouds,dailyrainin,SolarRadiationWatts/m^2,SoftwareType,DateUTC
2013-06-26 00:01:00,59.0,58.0,29.95,NNE,13,1.0,7.0,96,-99.99,,,0.02,0.000000,,2013-06-26 07:01:00,
2013-06-26 00:11:00,59.0,58.0,29.95,NNE,13,1.0,7.0,96,-99.99,,,0.02,0.000000,,2013-06-26 07:11:00,
2013-06-26 00:43:00,59.0,57.0,29.95,ENE,69,2.0,3.0,95,-99.99,,,0.02,0.000000,,2013-06-26 07:43:00,
2013-06-26 00:53:00,59.0,57.0,29.95,ENE,69,2.0,3.0,95,-99.99,,,0.02,0.000000,,2013-06-26 07:53:00,
2013-06-26 01:01:00,59.0,57.0,29.95,ENE,69,2.0,3.0,95,-99.99,,,0.02,0.000000,,2013-06-26 08:01:00,
2013-06-26 01:11:00,59.0,57.0,29.95,ENE,69,2.0,3.0,95,-99.99,,,0.02,0.000000,,2013-06-26 08:11:00,
2013-06-26 01:42:00,59.0,57.0,29.96,ENE,66,2.0,4.0,96,-99.99,,,0.02,0.000000,,2013-06-26 08:42:00,
2013-06-26 01:53:00,59.0,57.0,29.96,ENE,66,2.0,4.0,96,-99.99,,,0.02,0.000000,,2013-06-26 08:53:00,
2013-06-26 02:01:00,59.0,57.0,29.96,ENE,66,2.0,4.0,96,-99.99,,,0.02,0.000000,,2013-06-26 09:01:00,
2013-06-26 02:11:00,59.0,57.0,29.96,ENE,66,2.0,4.0,96,-99.99,,,0.02,0.000000,,2013-06-26 09:11:00,
2013-06-26 02:43:00,58.0,57.0,29.96,ENE,62,2.0,3.0,96,-99.99,,,0.02,0.000000,,2013-06-26 09:43:00,
2013-06-26 02:53:00,58.0,57.0,29.96,ENE,62,2.0,3.0,96,-99.99,,,0.02,0.000000,,2013-06-26 09:53:00,
2013-06-26 03:01:00,58.0,57.0,29.96,ENE,62,2.0,3.0,96,-99.99,,,0.02,0.000000,,2013-06-26 10:01:00,
2013-06-26 03:12:00,58.0,57.0,29.96,ENE,62,2.0,3.0,96,-99.99,,,0.02,0.000000,,2013-06-26 10:12:00,
2013-06-26 03:43:00,58.0,57.0,29.96,NE,50,1.0,3.0,96,-99.99,,,0.02,0.000000,,2013-06-26 10:43:00,
2013-06-26 03:53:00,58.0,57.0,29.96,NE,50,1.0,3.0,96,-99.99,,,0.02,0.000000,,2013-06-26 10:53:00,
2013-06-26 04:02:00,58.0,57.0,29.96,NE,50,1.0,3.0,96,-99.99,,,0.02,0.000000,,2013-06-26 11:02:00,
2013-06-26 04:11:00,58.0,57.0,29.96,NE,50,1.0,3.0,96,-99.99,,,0.02,0.000000,,2013-06-26 11:11:00,
2013-06-26 04:44:00,58.0,57.0,29.97,ENE,60,1.0,3.0,96,-99.99,,,0.02,0.000000,,2013-06-26 11:44:00,
2013-06-26 04:52:00,58.0,57.0,29.97,ENE,60,1.0,3.0,96,-99.99,,,0.02,0.000000,,2013-06-26 11:52:00,
2013-06-26 05:02:00,58.0,57.0,29.97,ENE,60,1.0,3.0,96,-99.99,,,0.02,0.000000,,2013-06-26 12:02:00,
2013-06-26 05:11:00,58.0,57.0,29.97,ENE,60,1.0,3.0,96,-99.99,,,0.02,0.000000,,2013-06-26 12:11:00,
2013-06-26 05:42:00,58.0,57.0,29.97,ENE,62,1.0,3.0,96,-99.99,,,0.02,0.230000,,2013-06-26 12:42:00,
2013-06-26 05:52:00,58.0,57.0,29.97,ENE,62,1.0,3.0,96,-99.99,,,0.02,0.230000,,2013-06-26 12:52:00,
2013-06-26 06:02:00,58.0,57.0,29.97,ENE,62,1.0,3.0,96,-99.99,,,0.02,0.230000,,2013-06-26 13:02:00,
2013-06-26 06:11:00,58.0,57.0,29.97,ENE,62,1.0,3.0,96,-99.99,,,0.02,0.230000,,2013-06-26 13:11:00,
2013-06-26 06:42:00,58.0,58.0,29.99,ENE,67,2.0,4.0,96,-99.99,,,0.02,10.340000,,2013-06-26 13:42:00,
2013-06-26 06:53:00,58.0,58.0,29.99,ENE,67,2.0,4.0,96,-99.99,,,0.02,10.340000,,2013-06-26 13:53:00,
2013-06-26 07:02:00,58.0,58.0,29.99,ENE,67,2.0,4.0,96,-99.99,,,0.02,10.340000,,2013-06-26 14:02:00,
2013-06-26 07:11:00,58.0,58.0,29.99,ENE,67,2.0,4.0,96,-99.99,,,0.02,10.340000,,2013-06-26 14:11:00,
2013-06-26 07:42:00,59.0,58.0,30.00,ENE,77,1.0,2.0,96,-99.99,,,0.02,51.139999,,2013-06-26 14:42:00,
2013-06-26 07:53:00,59.0,58.0,30.00,ENE,77,1.0,2.0,96,-99.99,,,0.02,51.139999,,2013-06-26 14:53:00,
2013-06-26 08:02:00,59.0,58.0,30.00,ENE,77,1.0,2.0,96,-99.99,,,0.02,51.139999,,2013-06-26 15:02:00,
2013-06-26 08:11:00,59.0,58.0,30.00,ENE,77,1.0,2.0,96,-99.99,,,0.02,51.139999,,2013-06-26 15:11:00,
2013-06-26 08:44:00,60.0,58.0,30.02,East,93,1.0,2.0,95,-99.99,,,0.02,103.199997,,2013-06-26 15:44:00,
2013-06-26 08:53:00,60.0,58.0,30.02,East,93,1.0,2.0,95,-99.99,,,0.02,103.199997,,2013-06-26 15:53:00,
2013-06-26 09:01:00,60.0,58.0,30.02,East,93,1.0,2.0,95,-99.99,,,0.02,103.199997,,2013-06-26 16:01:00,
2013-06-26 09:11:00,60.0,58.0,30.02,East,93,1.0,2.0,95,-99.99,,,0.02,103.199997,,2013-06-26 16:11:00,
2013-06-26 09:43:00,61.0,58.0,30.02,East,79,3.0,6.0,92,-99.99,,,0.02,166.889999,,2013-06-26 16:43:00,
2013-06-26 09:52:00,61.0,58.0,30.02,East,79,3.0,6.0,92,-99.99,,,0.02,166.889999,,2013-06-26 16:52:00,
2013-06-26 10:01:00,61.0,58.0,30.02,East,79,3.0,6.0,92,-99.99,,,0.02,166.889999,,2013-06-26 17:01:00,
2013-06-26 10:11:00,61.0,58.0,30.02,East,79,3.0,6.0,92,-99.99,,,0.02,166.889999,,2013-06-26 17:11:00,
2013-06-26 10:43:00,61.0,58.0,30.03,ENE,77,2.0,5.0,89,-99.99,,,0.02,166.309998,,2013-06-26 17:43:00,
2013-06-26 10:52:00,61.0,58.0,30.03,ENE,77,2.0,5.0,89,-99.99,,,0.02,166.309998,,2013-06-26 17:52:00,
2013-06-26 11:01:00,61.0,58.0,30.03,ENE,77,2.0,5.0,89,-99.99,,,0.02,166.309998,,2013-06-26 18:01:00,
2013-06-26 11:11:00,61.0,58.0,30.03,ENE,77,2.0,5.0,89,-99.99,,,0.02,166.309998,,2013-06-26 18:11:00,
2013-06-26 11:43:00,63.0,59.0,-100.00,SSE,158,1.0,2.0,87,-99.99,,,0.02,196.300003,,2013-06-26 18:43:00,
2013-06-26 11:52:00,63.0,59.0,-100.00,SSE,158,1.0,2.0,87,-99.99,,,0.02,196.300003,,2013-06-26 18:52:00,
2013-06-26 12:01:00,63.0,59.0,-100.00,SSE,158,1.0,2.0,87,-99.99,,,0.02,196.300003,,2013-06-26 19:01:00,
2013-06-26 12:11:00,63.0,59.0,30.06,SSE,158,1.0,2.0,87,-99.99,,,0.02,196.300003,,2013-06-26 19:11:00,
2013-06-26 12:42:00,63.0,59.0,-100.00,West,265,2.0,4.0,85,-99.99,,,0.02,139.460007,,2013-06-26 19:42:00,
2013-06-26 12:52:00,63.0,59.0,30.07,West,265,2.0,4.0,85,-99.99,,,0.02,139.460007,,2013-06-26 19:52:00,
2013-06-26 13:01:00,63.0,59.0,30.07,West,265,2.0,4.0,85,-99.99,,,0.02,139.460007,,2013-06-26 20:01:00,
2013-06-26 13:12:00,63.0,59.0,30.07,West,265,2.0,4.0,85,-99.99,,,0.02,139.460007,,2013-06-26 20:12:00,
2013-06-26 13:43:00,64.0,59.0,30.08,SSW,199,0.0,3.0,84,-99.99,,,0.02,174.559998,,2013-06-26 20:43:00,
2013-06-26 13:52:00,64.0,59.0,30.08,SSW,199,0.0,3.0,84,-99.99,,,0.02,174.559998,,2013-06-26 20:52:00,
2013-06-26 14:01:00,64.0,59.0,30.08,SSW,199,0.0,3.0,84,-99.99,,,0.02,174.559998,,2013-06-26 21:01:00,
2013-06-26 14:11:00,64.0,59.0,30.08,SSW,199,0.0,3.0,84,-99.99,,,0.02,174.559998,,2013-06-26 21:11:00,
2013-06-26 14:43:00,64.0,61.0,30.09,East,89,2.0,4.0,89,-99.99,,,0.02,362.959991,,2013-06-26 21:43:00,
2013-06-26 14:52:00,64.0,61.0,30.09,East,89,2.0,4.0,89,-99.99,,,0.02,362.959991,,2013-06-26 21:52:00,
2013-06-26 15:01:00,64.0,61.0,30.09,East,89,2.0,4.0,89,-99.99,,,0.02,362.959991,,2013-06-26 22:01:00,
2013-06-26 15:11:00,64.0,61.0,30.09,East,89,2.0,4.0,89,-99.99,,,0.02,362.959991,,2013-06-26 22:11:00,
2013-06-26 15:43:00,66.0,59.0,30.09,East,93,2.0,5.0,79,-99.99,,,0.02,398.049988,,2013-06-26 22:43:00,
2013-06-26 15:52:00,66.0,59.0,30.09,East,93,2.0,5.0,79,-99.99,,,0.02,398.049988,,2013-06-26 22:52:00,
2013-06-26 16:01:00,66.0,59.0,30.09,East,93,2.0,5.0,79,-99.99,,,0.02,398.049988,,2013-06-26 23:01:00,
2013-06-26 16:11:00,66.0,59.0,30.09,East,93,2.0,5.0,79,-99.99,,,0.02,398.049988,,2013-06-26 23:11:00,
2013-06-26 16:43:00,70.0,59.0,30.09,ESE,104,1.0,5.0,69,-99.99,,,0.01,704.289978,,2013-06-26 23:43:00,
2013-06-26 16:53:00,70.0,59.0,30.09,ESE,104,1.0,5.0,69,-99.99,,,0.01,704.289978,,2013-06-26 23:53:00,
2013-06-26 17:01:00,70.0,59.0,30.09,ESE,104,1.0,5.0,69,-99.99,,,0.01,704.289978,,2013-06-27 00:01:00,
2013-06-26 17:11:00,70.0,59.0,30.09,ESE,104,1.0,5.0,69,-99.99,,,0.01,704.289978,,2013-06-27 00:11:00,
2013-06-26 17:42:00,71.0,58.0,30.09,East,93,2.0,4.0,63,-99.99,,,0.00,687.559998,,2013-06-27 00:42:00,
2013-06-26 17:53:00,71.0,58.0,30.09,East,93,2.0,4.0,63,-99.99,,,0.00,687.559998,,2013-06-27 00:53:00,
2013-06-26 18:01:00,71.0,58.0,30.09,East,93,2.0,4.0,63,-99.99,,,0.00,687.559998,,2013-06-27 01:01:00,
2013-06-26 18:11:00,71.0,58.0,30.09,East,93,2.0,4.0,63,-99.99,,,0.00,687.559998,,2013-06-27 01:11:00,
2013-06-26 18:42:00,74.0,57.0,30.09,SSE,155,1.0,2.0,56,-99.99,,,0.00,432.570007,,2013-06-27 01:42:00,
2013-06-26 18:53:00,74.0,57.0,30.09,SSE,155,1.0,2.0,56,-99.99,,,0.00,432.570007,,2013-06-27 01:53:00,
2013-06-26 19:01:00,74.0,57.0,30.09,SSE,155,1.0,2.0,56,-99.99,,,0.00,432.570007,,2013-06-27 02:01:00,
2013-06-26 19:11:00,74.0,57.0,30.09,SSE,155,1.0,2.0,56,-99.99,,,0.00,432.570007,,2013-06-27 02:11:00,
2013-06-26 19:42:00,69.0,58.0,30.09,SSE,150,4.0,8.0,68,-99.99,,,0.00,214.309998,,2013-06-27 02:42:00,
2013-06-26 19:52:00,69.0,58.0,30.09,SSE,150,4.0,8.0,68,-99.99,,,0.00,214.309998,,2013-06-27 02:52:00,
2013-06-26 20:02:00,69.0,58.0,30.09,SSE,150,4.0,8.0,68,-99.99,,,0.00,214.309998,,2013-06-27 03:02:00,
2013-06-26 20:11:00,69.0,58.0,30.09,SSE,150,4.0,8.0,68,-99.99,,,0.00,214.309998,,2013-06-27 03:11:00,
2013-06-26 20:42:00,65.0,58.0,-100.00,SE,141,5.0,13.0,78,-99.99,,,0.00,39.279999,,2013-06-27 03:42:00,
2013-06-26 20:52:00,65.0,58.0,-100.00,SE,141,5.0,13.0,78,-99.99,,,0.00,39.279999,,2013-06-27 03:52:00,
2013-06-26 21:01:00,65.0,58.0,30.09,SE,141,5.0,13.0,78,-99.99,,,0.00,39.279999,,2013-06-27 04:01:00,
2013-06-26 21:11:00,65.0,58.0,30.09,SE,141,5.0,13.0,78,-99.99,,,0.00,39.279999,,2013-06-27 04:11:00,
2013-06-26 21:42:00,64.0,59.0,-100.00,ESE,116,3.0,12.0,83,-99.99,,,0.00,1.280000,,2013-06-27 04:42:00,
2013-06-26 21:52:00,64.0,59.0,-100.00,ESE,116,3.0,12.0,83,-99.99,,,0.00,1.280000,,2013-06-27 04:52:00,
2013-06-26 22:02:00,64.0,59.0,-100.00,ESE,116,3.0,12.0,83,-99.99,,,0.00,1.280000,,2013-06-27 05:02:00,
2013-06-26 22:12:00,64.0,59.0,30.11,ESE,116,3.0,12.0,83,-99.99,,,0.00,1.280000,,2013-06-27 05:12:00,
2013-06-26 22:42:00,62.0,60.0,-100.00,ENE,71,2.0,4.0,92,-99.99,,,0.00,0.000000,,2013-06-27 05:42:00,
2013-06-26 22:53:00,62.0,60.0,-100.00,ENE,71,2.0,4.0,92,-99.99,,,0.00,0.000000,,2013-06-27 05:53:00,
2013-06-26 23:01:00,62.0,60.0,30.12,ENE,71,2.0,4.0,92,-99.99,,,0.00,0.000000,,2013-06-27 06:01:00,
2013-06-26 23:12:00,62.0,60.0,30.12,ENE,71,2.0,4.0,92,-99.99,,,0.00,0.000000,,2013-06-27 06:12:00,
2013-06-26 23:43:00,61.0,59.0,30.12,ENE,72,2.0,3.0,91,-99.99,,,0.00,0.000000,,2013-06-27 06:43:00,
2013-06-26 23:53:00,61.0,59.0,30.12,ENE,72,2.0,3.0,91,-99.99,,,0.00,0.000000,,2013-06-27 06:53:00,